Pagrindinis puslapis
METAR-TAF:

METAR-TAF

Oro uostai :

Kudat, Malaizija

platuma: 06-55N, ilguma: 116-50E, Aukštis: 3 m

Dabartinis oras

Ataskaita buvo paskelbta 1 valandą ir 8 minutes, ne 04:00 UTC
Vėjas 8 kt nuo kintamojo kryptimis
Temperatūra 28°C
Drėgmė 84%
Slėgis 1010 hPa
Matomumas 10 km arba daugiau
Mažai debesys ne aukštis 900 ft
Išsisklaidę debesys ne aukštis 1300 ft
Su prošvaistėmis ne aukštis 27000 ft

METAR: WBKT 290400Z VRB08KT 9999 FEW009 SCT013 BKN270 28/25 Q1010

Laikas: 13:08 (05:08 UTC)


TAF: trūkstamas

Orai ataskaitas ir orų prognozės (METAR, TAF).

turimą stotys yra geltonos ir raudonos taškus žemėlapyje.

Perkelti pele per norėdami pamatyti stoties vardą.

Tada spustelėkite, norėdami matyti oro stebėjimo ir prognozės.

Norėdami pakeisti žemėlapį: spustelėkite ant žalios mygtukų su juodo kryžiaus žemyn,; žalią mygtuką su brūkšneliu, jei norite nutolinti; arba žalių rodyklių gretimoms žemėlapius.


METAR-TAF: